Airfield :
LOGIN :

Register | Disclaimer

   EN    FR    IT 

 










Legend :    VFR   Marginal VFR   IFR   Intensive IFR   Very Intensive IFR
Visi :
Ceiling :
>= 8 km
>= 3000ft
5 to 8 km
1000 to 3000 ft
1500m to 5 km
500 to 1000 ft
800 to 1500m
200 to 500 ft
< 800m
< 200 ft
Symbols :   Thunderstorms  Fog  Heavy snow  Heavy precipitations  Wind > 20 kt
SIGMETs :     Misc.  Thunderstorms  Icing  Turbulence  Mountain Waves  Volcanic Ashes






- Airport Elevation : 580 ft


LFOA - Avord

CURRENT METAR :
  • 271930Z AUTO 23015KT 8000 RA BKN020/// BKN025/// OVC030/// ///CB 08/06 Q1007

EXPIRED METARs :
  • 271900Z AUTO 21014KT 9999 RA BKN025/// OVC034/// ///TCU 09/06 Q1006
  • 271830Z AUTO 21016KT 9999 -RA SCT024/// BKN031/// BKN041/// ///TCU 09/06 Q1007 TEMPO 26030G40KT 2000 -TSRAGS BKN006 OVC012CB
  • 271800Z AUTO 21016KT 9999 OVC025 09/06 Q1007 TEMPO 24025G35KT 4000 SHRA BKN012TCU
  • 271730Z AUTO 22015KT 9999 BKN024 BKN030 OVC041 09/06 Q1007 TEMPO 24025G35KT 4000 SHRA BKN012TCU
  • 271700Z AUTO 22017KT 9999 BKN023 OVC029 09/06 Q1007 TEMPO 24025G35KT 4000 SHRA BKN012TCU

TAF TAF LFOA
Valid from the 27 at 15:00 until the 28 at 15:00 UTC


271400Z 2715/2815 21015G30KT 9999 BKN030
TEMPO 2715/2718 20015G30KT 4000 RA BKN012 OVC020
TEMPO 2718/2815 24025G35KT 4000 SHRA BKN012TCU
PROB30
TEMPO 2720/2809 26030G40KT 2000 -TSRAGS BKN006 OVC012CB



MET'MAP, your aeronautical weather chart ! - Copyright ORBIFLY December 2007 - Disclaimer

ORBIFLY MET'MAP TEAM :

Programming & Development : Alexandra Zaïnal
Concept & original design : Baudouin d'Aumeries
Assistance for programming : Marc-Olivier Méhu
Technical & hardware support : Manuel Goepfert

Contact : metmap@orbifly.com




SOURCES & CREDITS :

   NOAA